Time;durP1;ratioP1;P1;durP2;ratioP2;P2;SDS_P1;SDS_P2;PMS_P1;PMS_P2;Temp;Humidity;BMP_temperature;BMP_pressure;BME280_temperature;BME280_humidity;BME280_pressure;Samples;Min_cycle;Max_cycle;Signal;HPM_P1;HPM_P2
2022/12/22 03:25:59;;;;;;;53.70;30.13;;;8.90;99.90;;;;;;5051638;28;20080;-47
2022/12/22 03:28:26;;;;;;;63.83;32.05;;;8.90;99.90;;;;;;5053902;28;20045;-54
2022/12/22 03:30:57;;;;;;;57.80;30.35;;;8.90;99.90;;;;;;5054983;28;20084;-55
2022/12/22 03:33:25;;;;;;;65.73;31.33;;;9.00;99.90;;;;;;5053780;28;20087;-55
2022/12/22 03:35:52;;;;;;;66.03;33.50;;;8.90;99.90;;;;;;5053931;28;20091;-54
2022/12/22 03:38:19;;;;;;;59.80;31.58;;;8.90;99.90;;;;;;5054638;28;20087;-54
2022/12/22 03:40:45;;;;;;;59.60;31.85;;;8.90;99.90;;;;;;5051996;28;20441;-54
2022/12/22 03:49:08;;;;;;;55.85;30.90;;;8.90;99.90;;;;;;5049150;28;20060;-56
2022/12/22 03:51:35;;;;;;;62.40;31.17;;;9.00;99.90;;;;;;5043623;28;20059;-55
2022/12/22 03:54:02;;;;;;;54.40;29.50;;;9.00;99.90;;;;;;5053688;28;20081;-57
2022/12/22 03:56:28;;;;;;;65.40;32.03;;;9.00;99.90;;;;;;5052512;28;20087;-57
2022/12/22 03:58:55;;;;;;;58.92;30.38;;;8.90;99.90;;;;;;5054005;28;20124;-56
2022/12/22 04:01:22;;;;;;;46.72;28.48;;;9.00;99.90;;;;;;5052888;28;20451;-55
2022/12/22 04:03:50;;;;;;;62.92;29.42;;;9.00;99.90;;;;;;5046262;28;20553;-57
2022/12/22 04:06:17;;;;;;;45.90;26.75;;;9.00;99.90;;;;;;5052317;28;20092;-58
2022/12/22 04:08:44;;;;;;;49.65;26.67;;;9.00;99.90;;;;;;5047441;28;20146;-57
2022/12/22 04:13:55;;;;;;;53.15;27.75;;;9.00;99.90;;;;;;5053262;28;20057;-63
2022/12/22 04:16:22;;;;;;;67.55;29.25;;;9.00;99.90;;;;;;5053266;28;20091;-60
2022/12/22 04:18:50;;;;;;;42.35;26.05;;;9.00;99.90;;;;;;5053897;28;20128;-57
2022/12/22 04:21:17;;;;;;;61.65;29.42;;;9.00;99.90;;;;;;5054128;28;20465;-58
2022/12/22 04:23:43;;;;;;;47.25;26.83;;;9.00;99.90;;;;;;5052075;28;20041;-55
2022/12/22 04:26:10;;;;;;;55.83;28.00;;;9.00;99.90;;;;;;5054198;28;20096;-58
2022/12/22 04:28:37;;;;;;;44.60;26.15;;;9.00;99.90;;;;;;5052634;28;20053;-58
2022/12/22 04:31:04;;;;;;;47.92;28.08;;;9.00;99.90;;;;;;5051645;28;20447;-61
2022/12/22 04:33:31;;;;;;;51.90;27.90;;;9.00;99.90;;;;;;5056850;28;20098;-68
2022/12/22 04:35:59;;;;;;;53.28;27.98;;;9.00;99.90;;;;;;5057048;28;20111;-62
2022/12/22 04:38:26;;;;;;;37.60;25.00;;;9.00;99.90;;;;;;5045038;28;20559;-62
2022/12/22 04:40:52;;;;;;;51.17;27.60;;;9.00;99.90;;;;;;5050148;28;20052;-62
2022/12/22 04:43:19;;;;;;;35.65;24.00;;;9.00;99.90;;;;;;5050949;28;20496;-61
2022/12/22 04:45:46;;;;;;;43.88;25.45;;;9.00;99.90;;;;;;5051181;28;20110;-59
2022/12/22 04:48:13;;;;;;;46.28;25.95;;;9.00;99.90;;;;;;5052024;28;20140;-59
2022/12/22 04:50:40;;;;;;;52.88;27.58;;;9.00;99.90;;;;;;5050676;28;20044;-56
2022/12/22 04:53:08;;;;;;;43.42;24.83;;;9.00;99.90;;;;;;5051041;28;20570;-51
2022/12/22 04:55:35;;;;;;;43.13;24.27;;;9.00;99.90;;;;;;5051169;28;20086;-56
2022/12/22 04:58:01;;;;;;;49.10;27.35;;;9.00;99.90;;;;;;5053234;28;20127;-54
2022/12/22 05:00:28;;;;;;;48.20;25.85;;;9.00;99.90;;;;;;5049219;28;20056;-56
2022/12/22 05:02:55;;;;;;;51.45;26.27;;;9.00;99.90;;;;;;5051337;28;20045;-55
2022/12/22 05:05:22;;;;;;;48.85;26.55;;;9.00;99.90;;;;;;5053258;28;20057;-56
2022/12/22 05:07:48;;;;;;;45.70;25.40;;;9.00;99.90;;;;;;5051183;28;20088;-44
2022/12/22 05:10:17;;;;;;;55.47;27.17;;;9.00;99.90;;;;;;5050585;28;20056;-55
2022/12/22 05:12:55;;;;;;;46.50;25.70;;;9.00;99.90;;;;;;5049656;28;20077;-53
2022/12/22 05:15:22;;;;;;;51.90;26.45;;;9.00;99.90;;;;;;5051773;28;20048;-41
2022/12/22 05:17:49;;;;;;;51.50;27.52;;;9.00;99.90;;;;;;5048504;28;20080;-53
2022/12/22 05:20:16;;;;;;;51.60;26.70;;;9.00;99.90;;;;;;5046644;28;20511;-55
2022/12/22 05:22:43;;;;;;;65.75;28.17;;;9.00;99.90;;;;;;5049597;28;20132;-52
2022/12/22 05:25:10;;;;;;;52.38;26.48;;;9.00;99.90;;;;;;5041465;28;20088;-54
2022/12/22 05:27:38;;;;;;;58.58;26.58;;;9.00;99.90;;;;;;5041340;28;20052;-49
2022/12/22 05:30:06;;;;;;;40.55;23.90;;;9.00;99.90;;;;;;5050457;28;20072;-55
2022/12/22 05:32:33;;;;;;;43.60;24.77;;;9.00;99.90;;;;;;5051672;28;20084;-53
2022/12/22 05:34:59;;;;;;;48.95;25.55;;;9.00;99.90;;;;;;5049244;28;20099;-48
2022/12/22 05:37:26;;;;;;;58.78;27.70;;;9.00;99.90;;;;;;5052687;28;20136;-51
2022/12/22 05:39:53;;;;;;;78.15;31.05;;;9.00;99.90;;;;;;5046640;28;20088;-55
2022/12/22 05:42:34;;;;;;;66.30;29.45;;;9.00;99.90;;;;;;5046910;28;20049;-53
2022/12/22 05:45:04;;;;;;;82.03;30.25;;;9.00;99.90;;;;;;5056422;28;20087;-52
2022/12/22 05:47:30;;;;;;;82.65;31.90;;;9.00;99.90;;;;;;5060854;28;20088;-47
2022/12/22 05:49:57;;;;;;;84.25;31.52;;;9.00;99.90;;;;;;5049771;28;20145;-52
2022/12/22 05:52:24;;;;;;;82.57;31.75;;;8.90;99.90;;;;;;5050783;28;20053;-48
2022/12/22 05:54:51;;;;;;;100.97;33.42;;;9.00;99.90;;;;;;5052277;28;20072;-49
2022/12/22 05:57:18;;;;;;;92.28;33.80;;;8.90;99.90;;;;;;5052191;28;20509;-49
2022/12/22 05:59:44;;;;;;;104.95;36.28;;;9.00;99.90;;;;;;5051348;28;20088;-50
2022/12/22 06:02:12;;;;;;;89.88;33.42;;;8.90;99.90;;;;;;5051859;28;20285;-48
2022/12/22 06:04:39;;;;;;;95.60;33.95;;;9.00;99.90;;;;;;5046309;28;20111;-51
2022/12/22 06:07:06;;;;;;;100.00;34.90;;;8.90;99.90;;;;;;5049547;28;20044;-53
2022/12/22 06:09:33;;;;;;;89.82;32.65;;;8.90;99.90;;;;;;5051250;28;20103;-52
2022/12/22 06:12:00;;;;;;;100.93;33.38;;;8.90;99.90;;;;;;5049254;28;20149;-55
2022/12/22 06:14:26;;;;;;;81.72;31.95;;;8.90;99.90;;;;;;5047316;28;20077;-50
2022/12/22 06:16:53;;;;;;;96.10;34.83;;;8.90;99.90;;;;;;5059797;28;20053;-50
2022/12/22 06:19:21;;;;;;;93.20;33.85;;;8.90;99.90;;;;;;5055468;28;20515;-52
2022/12/22 06:21:48;;;;;;;87.40;33.20;;;8.80;99.90;;;;;;5050762;28;20086;-55
2022/12/22 06:24:15;;;;;;;83.10;30.90;;;8.80;99.90;;;;;;5051084;28;20052;-51
2022/12/22 06:26:42;;;;;;;82.22;30.35;;;8.80;99.90;;;;;;5049362;28;20550;-47
2022/12/22 06:29:08;;;;;;;84.78;32.60;;;8.80;99.90;;;;;;5049702;28;20084;-50
2022/12/22 06:31:35;;;;;;;81.38;30.20;;;8.80;99.90;;;;;;5050664;28;20080;-48
2022/12/22 06:34:02;;;;;;;83.28;30.27;;;8.80;99.90;;;;;;5051362;28;20055;-55
2022/12/22 06:36:30;;;;;;;87.90;30.45;;;8.70;99.90;;;;;;5049082;28;20057;-47
2022/12/22 06:38:57;;;;;;;72.30;28.13;;;8.70;99.90;;;;;;5050685;28;20053;-48
2022/12/22 06:44:05;;;;;;;77.28;28.65;;;8.70;99.90;;;;;;5055234;28;20151;-48
2022/12/22 06:46:31;;;;;;;86.53;29.83;;;8.70;99.90;;;;;;5044802;28;20136;-48
2022/12/22 06:48:58;;;;;;;81.05;29.27;;;8.70;99.90;;;;;;5052793;28;20136;-50
2022/12/22 06:51:25;;;;;;;73.32;28.75;;;8.70;99.90;;;;;;5054690;28;20079;-54
2022/12/22 06:53:53;;;;;;;73.93;27.42;;;8.70;99.90;;;;;;5054197;28;20529;-54
2022/12/22 06:56:20;;;;;;;58.30;24.20;;;8.60;99.90;;;;;;5054214;28;20089;-51
2022/12/22 06:58:47;;;;;;;69.90;27.95;;;8.50;99.90;;;;;;5054886;28;20118;-54
2022/12/22 07:01:13;;;;;;;81.05;28.15;;;8.50;99.90;;;;;;5055175;28;20045;-54
2022/12/22 07:03:40;;;;;;;64.82;26.73;;;8.40;99.90;;;;;;5048477;28;20057;-52
2022/12/22 07:06:07;;;;;;;55.38;24.63;;;8.40;99.90;;;;;;5047915;28;20136;-52
2022/12/22 07:08:34;;;;;;;106.50;42.45;;;8.40;99.90;;;;;;5051643;28;20084;-50
2022/12/22 07:11:02;;;;;;;63.38;27.65;;;8.30;99.90;;;;;;5053273;28;20103;-50
2022/12/22 07:13:31;;;;;;;74.68;29.40;;;8.20;99.90;;;;;;5051441;28;20683;-48
2022/12/22 07:15:58;;;;;;;69.35;27.27;;;8.20;99.90;;;;;;5054499;28;20502;-52
2022/12/22 07:18:25;;;;;;;57.03;25.52;;;8.10;99.90;;;;;;5039935;28;20524;-53
2022/12/22 07:20:52;;;;;;;56.95;24.02;;;8.10;99.90;;;;;;5033679;28;20045;-49
2022/12/22 07:23:18;;;;;;;48.60;23.67;;;8.00;99.90;;;;;;5034559;28;20072;-42
2022/12/22 07:25:45;;;;;;;61.80;26.63;;;7.90;99.90;;;;;;5041307;28;20123;-51
2022/12/22 07:28:13;;;;;;;58.53;24.90;;;7.90;99.90;;;;;;5053791;28;20085;-51
2022/12/22 07:30:40;;;;;;;69.53;27.95;;;7.90;99.90;;;;;;5052925;28;20469;-52
2022/12/22 07:33:07;;;;;;;70.63;27.80;;;7.90;99.90;;;;;;5051433;28;20122;-49
2022/12/22 07:35:34;;;;;;;67.95;28.50;;;7.80;99.90;;;;;;5054256;28;20053;-52
2022/12/22 07:38:00;;;;;;;83.60;28.05;;;7.90;99.90;;;;;;5054021;28;20061;-52
2022/12/22 07:40:27;;;;;;;77.20;27.27;;;7.80;99.90;;;;;;5040181;28;20132;-52
2022/12/22 07:42:55;;;;;;;83.70;28.48;;;7.80;99.90;;;;;;5052959;28;20106;-50
2022/12/22 07:45:23;;;;;;;86.60;27.83;;;7.90;99.90;;;;;;5053224;28;20579;-51
2022/12/22 07:47:50;;;;;;;97.18;27.88;;;7.90;99.90;;;;;;5050135;28;20053;-52
2022/12/22 07:50:27;;;;;;;106.43;28.42;;;7.80;99.90;;;;;;5050556;28;20135;-53
2022/12/22 07:52:54;;;;;;;83.30;27.10;;;7.70;99.90;;;;;;5045774;28;20274;-50
2022/12/22 07:55:21;;;;;;;116.80;28.20;;;7.80;99.90;;;;;;5051425;28;20144;-53
2022/12/22 07:57:47;;;;;;;98.50;26.10;;;7.70;99.90;;;;;;5042376;28;20397;-49
2022/12/22 08:00:15;;;;;;;87.85;25.65;;;7.70;99.90;;;;;;5053313;28;20163;-51
2022/12/22 08:02:47;;;;;;;92.07;25.40;;;7.70;99.90;;;;;;5051570;28;20370;-49
2022/12/22 08:05:14;;;;;;;96.13;25.67;;;7.70;99.90;;;;;;5051715;28;20049;-52
2022/12/22 08:07:41;;;;;;;85.93;24.45;;;7.70;99.90;;;;;;5050003;28;20089;-40
2022/12/22 08:10:09;;;;;;;75.35;22.70;;;7.70;99.90;;;;;;5051810;28;20057;-53
2022/12/22 08:12:36;;;;;;;84.30;24.45;;;7.60;99.90;;;;;;5052839;28;20053;-49
2022/12/22 08:15:03;;;;;;;69.53;24.38;;;7.60;99.90;;;;;;5053516;28;20040;-52
2022/12/22 08:17:29;;;;;;;75.10;23.90;;;7.60;99.90;;;;;;5052364;28;20099;-48
2022/12/22 08:19:57;;;;;;;63.53;21.83;;;7.60;99.90;;;;;;5051411;28;20092;-52
2022/12/22 08:22:24;;;;;;;65.28;23.17;;;7.60;99.90;;;;;;5051156;28;20103;-49
2022/12/22 08:24:51;;;;;;;65.60;22.50;;;7.50;99.90;;;;;;5052277;28;20601;-51
2022/12/22 08:27:20;;;;;;;78.07;21.00;;;7.50;99.90;;;;;;5048951;28;20103;-48
2022/12/22 08:29:49;;;;;;;108.53;20.77;;;7.50;99.90;;;;;;5053117;28;20080;-48
2022/12/22 08:32:16;;;;;;;84.50;20.17;;;7.50;99.90;;;;;;5052073;28;20084;-53
2022/12/22 08:34:43;;;;;;;61.70;19.98;;;7.50;99.90;;;;;;5052611;28;20052;-52
2022/12/22 08:37:12;;;;;;;76.15;20.27;;;7.40;99.90;;;;;;5050215;28;20061;-47
2022/12/22 08:39:39;;;;;;;134.98;22.23;;;7.40;99.90;;;;;;5048362;28;20481;-51
2022/12/22 08:42:07;;;;;;;125.10;20.85;;;7.40;99.90;;;;;;5052536;28;20100;-52
2022/12/22 08:44:34;;;;;;;140.10;22.15;;;7.40;99.90;;;;;;5051681;28;20098;-54
2022/12/22 08:47:00;;;;;;;143.32;23.13;;;7.40;99.90;;;;;;5050422;28;20085;-48
2022/12/22 08:49:27;;;;;;;139.07;21.95;;;7.40;99.90;;;;;;5051394;28;20417;-51
2022/12/22 08:51:54;;;;;;;89.35;19.25;;;7.40;99.90;;;;;;5050424;28;20060;-49
2022/12/22 08:54:22;;;;;;;125.50;19.30;;;7.40;99.90;;;;;;5052113;28;20502;-49
2022/12/22 08:56:49;;;;;;;113.28;18.45;;;7.50;99.90;;;;;;5051648;28;20049;-51
2022/12/22 08:59:16;;;;;;;89.32;18.20;;;7.40;99.90;;;;;;5051107;28;20473;-51
2022/12/22 09:01:46;;;;;;;117.70;16.23;;;7.40;99.90;;;;;;5050453;28;20444;-52
2022/12/22 09:04:13;;;;;;;74.00;15.43;;;7.30;99.90;;;;;;5045680;28;20106;-48
2022/12/22 09:06:40;;;;;;;78.68;14.65;;;7.40;99.90;;;;;;5050964;28;20085;-50
2022/12/22 09:09:08;;;;;;;76.43;14.75;;;7.30;99.90;;;;;;5051682;28;20229;-53
2022/12/22 09:11:36;;;;;;;80.35;15.23;;;7.30;99.90;;;;;;5051174;28;20088;-52
2022/12/22 09:14:03;;;;;;;66.55;14.07;;;7.30;99.90;;;;;;5051903;28;20106;-49
2022/12/22 09:16:30;;;;;;;112.07;15.40;;;7.20;99.90;;;;;;5052195;28;20084;-50
2022/12/22 09:18:57;;;;;;;96.30;15.30;;;7.20;99.90;;;;;;5051899;28;20162;-55
2022/12/22 09:21:24;;;;;;;62.10;14.80;;;7.20;99.90;;;;;;5049749;28;20110;-51
2022/12/22 09:23:51;;;;;;;60.80;16.00;;;7.20;99.90;;;;;;5050613;28;20144;-50
2022/12/22 09:26:19;;;;;;;60.50;15.25;;;7.20;99.90;;;;;;5052062;28;20049;-50
2022/12/22 09:28:47;;;;;;;54.67;15.60;;;7.20;99.90;;;;;;5051660;28;20095;-48
2022/12/22 09:31:14;;;;;;;56.75;15.35;;;7.30;99.90;;;;;;5051574;28;20577;-52
2022/12/22 09:33:41;;;;;;;79.40;16.25;;;7.20;99.90;;;;;;5051549;28;20045;-50
2022/12/22 09:36:08;;;;;;;76.28;16.27;;;7.30;99.90;;;;;;5050374;28;20088;-51
2022/12/22 09:38:35;;;;;;;95.35;16.63;;;7.20;99.90;;;;;;5050956;28;20555;-51
2022/12/22 09:41:07;;;;;;;52.63;15.65;;;7.30;99.90;;;;;;5049725;28;20079;-54
2022/12/22 09:43:34;;;;;;;74.15;16.75;;;7.30;99.90;;;;;;5050639;28;20084;-52
2022/12/22 09:46:02;;;;;;;60.03;16.20;;;7.20;99.90;;;;;;5049720;28;20488;-49
2022/12/22 09:48:34;;;;;;;74.43;15.82;;;7.20;99.90;;;;;;5050081;28;20114;-50
2022/12/22 09:51:01;;;;;;;57.00;16.33;;;7.20;99.90;;;;;;5051291;28;20068;-51
2022/12/22 09:53:28;;;;;;;36.70;14.32;;;7.20;99.90;;;;;;5052020;28;20087;-48
2022/12/22 09:55:55;;;;;;;47.15;15.50;;;7.30;99.90;;;;;;5046167;28;20095;-52
2022/12/22 09:58:25;;;;;;;49.25;14.40;;;7.20;99.90;;;;;;5051382;28;20484;-52
2022/12/22 10:00:54;;;;;;;47.65;15.18;;;7.20;99.90;;;;;;5050309;28;20053;-49
2022/12/22 10:03:30;;;;;;;55.35;16.13;;;7.20;99.90;;;;;;5046975;28;20138;-50
2022/12/22 10:06:01;;;;;;;50.83;16.45;;;7.30;99.90;;;;;;5040357;28;20055;-54
2022/12/22 10:08:28;;;;;;;53.03;16.92;;;7.30;99.90;;;;;;5051395;28;20092;-54
2022/12/22 10:10:55;;;;;;;46.35;15.07;;;7.30;99.90;;;;;;5049306;28;20095;-50
2022/12/22 10:13:22;;;;;;;42.53;15.60;;;7.30;99.90;;;;;;5048738;28;20061;-51
2022/12/22 10:15:50;;;;;;;42.15;15.35;;;7.30;99.90;;;;;;5053103;28;20535;-53
2022/12/22 10:18:18;;;;;;;54.55;15.00;;;7.30;99.90;;;;;;5054998;28;20140;-52
2022/12/22 10:20:47;;;;;;;50.42;15.18;;;7.30;99.90;;;;;;5054593;28;20123;-54
2022/12/22 10:23:16;;;;;;;54.08;16.08;;;7.30;99.90;;;;;;5055521;28;20134;-52
2022/12/22 10:25:44;;;;;;;45.55;15.63;;;7.40;99.90;;;;;;5054348;28;20084;-53
2022/12/22 10:28:13;;;;;;;45.83;15.23;;;7.40;99.90;;;;;;5053574;28;20090;-48
2022/12/22 10:30:40;;;;;;;41.50;14.68;;;7.40;99.90;;;;;;5055303;28;20135;-51
2022/12/22 10:33:08;;;;;;;35.55;12.65;;;7.40;99.90;;;;;;5053680;28;20133;-54
2022/12/22 10:35:48;;;;;;;38.63;12.77;;;7.40;99.90;;;;;;5055440;28;20092;-50
2022/12/22 10:38:17;;;;;;;35.35;13.43;;;7.50;99.90;;;;;;5052741;28;20477;-52
2022/12/22 10:40:45;;;;;;;36.95;12.35;;;7.60;99.90;;;;;;5053430;28;20566;-54
2022/12/22 10:43:17;;;;;;;36.17;12.98;;;7.50;99.90;;;;;;5053750;28;20099;-49
2022/12/22 10:45:47;;;;;;;35.92;14.00;;;7.60;99.90;;;;;;5054700;28;20485;-52
2022/12/22 10:48:14;;;;;;;32.70;11.50;;;7.60;99.90;;;;;;5054695;28;20080;-53
2022/12/22 10:50:46;;;;;;;34.22;12.57;;;7.70;99.90;;;;;;5054847;28;20452;-52
2022/12/22 10:53:13;;;;;;;36.38;12.85;;;7.70;99.90;;;;;;5053263;28;20408;-52
2022/12/22 10:55:40;;;;;;;28.65;12.10;;;7.80;99.90;;;;;;5052550;28;20084;-47
2022/12/22 10:58:15;;;;;;;33.20;12.23;;;7.80;99.90;;;;;;5052751;28;20132;-38
2022/12/22 11:00:43;;;;;;;30.65;12.07;;;7.80;99.90;;;;;;5034378;28;20057;-50
2022/12/22 11:03:13;;;;;;;34.00;12.77;;;7.80;99.90;;;;;;5051489;28;20492;-46
2022/12/22 11:05:40;;;;;;;32.30;11.98;;;7.90;99.90;;;;;;5049633;28;20065;-46
2022/12/22 11:08:15;;;;;;;29.00;11.80;;;7.90;99.90;;;;;;5051624;28;20139;-49
2022/12/22 11:10:46;;;;;;;30.98;11.77;;;7.90;99.90;;;;;;5053714;28;20052;-48
2022/12/22 11:13:39;;;;;;;29.38;11.90;;;7.90;99.90;;;;;;5053277;28;20049;-51
2022/12/22 11:16:10;;;;;;;27.00;11.55;;;7.90;99.90;;;;;;5053309;28;20381;-50
2022/12/22 11:18:45;;;;;;;29.55;11.43;;;7.90;99.90;;;;;;5054159;28;20135;-49
2022/12/22 11:21:14;;;;;;;28.35;11.45;;;7.90;99.90;;;;;;5051433;28;20053;-51
2022/12/22 11:23:46;;;;;;;27.25;11.23;;;7.90;99.90;;;;;;5051363;28;20080;-51
2022/12/22 11:26:15;;;;;;;26.85;11.73;;;7.90;99.90;;;;;;5053164;28;20057;-49
2022/12/22 11:29:05;;;;;;;33.10;11.93;;;7.90;99.90;;;;;;5051922;28;20098;-53
2022/12/22 11:31:56;;;;;;;24.63;10.90;;;7.90;99.90;;;;;;5032751;28;20092;-52
2022/12/22 11:34:32;;;;;;;29.40;11.32;;;7.90;99.90;;;;;;5034358;28;20129;-49
2022/12/22 11:37:03;;;;;;;30.05;11.50;;;7.90;99.90;;;;;;5033026;28;20095;-54
2022/12/22 11:39:38;;;;;;;27.50;11.48;;;7.90;99.90;;;;;;5034223;28;20492;-53
2022/12/22 11:42:10;;;;;;;31.65;11.77;;;8.00;99.90;;;;;;5051426;28;20080;-52
2022/12/22 11:44:41;;;;;;;26.50;10.75;;;8.00;99.90;;;;;;5052462;28;20084;-50
2022/12/22 11:47:19;;;;;;;26.83;11.32;;;8.10;99.90;;;;;;5046380;28;20088;-52
2022/12/22 11:50:01;;;;;;;28.63;11.10;;;8.10;99.90;;;;;;5034659;28;20096;-54
2022/12/22 11:52:39;;;;;;;25.20;10.43;;;8.10;99.90;;;;;;5053647;28;20048;-49
2022/12/22 11:55:29;;;;;;;25.20;9.90;;;8.10;99.90;;;;;;5053281;28;20457;-50
2022/12/22 11:58:03;;;;;;;21.83;9.20;;;8.20;99.90;;;;;;5049979;28;20049;-49
2022/12/22 12:00:30;;;;;;;24.63;9.98;;;8.20;99.90;;;;;;5052629;28;20073;-47
2022/12/22 12:03:16;;;;;;;22.63;9.23;;;8.30;99.90;;;;;;5055084;28;20469;-48
2022/12/22 12:06:24;;;;;;;21.67;9.57;;;8.40;99.90;;;;;;5051840;28;20128;-52
2022/12/22 12:09:04;;;;;;;21.50;8.98;;;8.40;99.90;;;;;;5051166;28;20056;-49
2022/12/22 12:11:35;;;;;;;19.63;9.50;;;8.40;99.90;;;;;;5053128;28;20132;-47
2022/12/22 12:14:07;;;;;;;25.23;8.88;;;8.50;99.90;;;;;;5052891;28;20409;-50
2022/12/22 12:16:37;;;;;;;24.52;9.75;;;8.60;99.90;;;;;;5053097;28;20049;-53
2022/12/22 12:19:46;;;;;;;22.42;8.82;;;8.50;99.90;;;;;;5048960;28;20134;-50
2022/12/22 12:22:17;;;;;;;22.25;9.27;;;8.60;99.90;;;;;;5032933;28;20085;-49
2022/12/22 12:24:51;;;;;;;24.55;9.63;;;8.60;99.90;;;;;;5033283;28;20064;-51
2022/12/22 12:27:27;;;;;;;24.45;9.73;;;8.60;99.90;;;;;;5048962;28;20469;-46
2022/12/22 12:29:58;;;;;;;25.35;9.88;;;8.60;99.90;;;;;;5049477;28;20588;-54
2022/12/22 12:32:26;;;;;;;21.70;9.90;;;8.60;99.90;;;;;;5051078;28;20520;-49
2022/12/22 12:34:56;;;;;;;23.25;10.00;;;8.60;99.90;;;;;;5052417;28;20303;-54
2022/12/22 12:37:27;;;;;;;25.17;9.93;;;8.70;99.90;;;;;;5052593;28;20132;-52
2022/12/22 12:39:58;;;;;;;28.30;9.55;;;8.70;99.90;;;;;;5043322;28;20076;-50
2022/12/22 12:42:30;;;;;;;27.20;10.20;;;8.70;99.90;;;;;;5044283;28;20072;-51
2022/12/22 12:44:58;;;;;;;22.35;9.80;;;8.70;99.90;;;;;;5048215;28;20458;-50
2022/12/22 12:47:25;;;;;;;31.10;10.30;;;8.70;99.90;;;;;;5044601;28;20049;-52
2022/12/22 12:50:40;;;;;;;24.90;10.18;;;8.70;99.90;;;;;;5049466;28;20140;-51
2022/12/22 12:53:08;;;;;;;24.05;10.00;;;8.70;99.90;;;;;;5045907;28;20087;-51
2022/12/22 12:56:08;;;;;;;28.92;10.90;;;8.70;99.90;;;;;;5060872;28;20080;-52
2022/12/22 12:58:52;;;;;;;30.05;10.88;;;8.80;99.90;;;;;;5064959;28;20091;-52
2022/12/22 13:01:59;;;;;;;33.60;11.13;;;8.90;99.90;;;;;;5053287;28;20052;-53
2022/12/22 13:05:02;;;;;;;27.88;11.02;;;9.00;99.90;;;;;;5053059;28;20460;-52
2022/12/22 13:08:02;;;;;;;24.92;10.50;;;9.10;99.90;;;;;;5034322;28;20057;-49
2022/12/22 13:10:28;;;;;;;30.33;11.57;;;9.10;99.90;;;;;;5048508;28;20048;-48
2022/12/22 13:12:56;;;;;;;25.33;11.00;;;9.10;99.90;;;;;;5048825;28;20076;-52
2022/12/22 13:15:29;;;;;;;28.55;11.45;;;9.10;99.90;;;;;;5052782;28;20053;-43
2022/12/22 13:17:56;;;;;;;26.73;12.18;;;9.10;99.90;;;;;;5051499;28;20511;-49
2022/12/22 13:20:25;;;;;;;25.83;10.98;;;9.20;99.90;;;;;;5051368;28;20110;-49
2022/12/22 13:22:52;;;;;;;31.20;11.20;;;9.20;99.90;;;;;;5051785;28;20052;-51
2022/12/22 13:25:19;;;;;;;29.42;11.32;;;9.20;99.90;;;;;;5052597;28;20084;-49
2022/12/22 13:27:45;;;;;;;27.85;10.85;;;9.20;99.90;;;;;;5051698;28;20044;-53
2022/12/22 13:30:14;;;;;;;28.60;11.38;;;9.20;99.90;;;;;;5052867;28;20057;-51
2022/12/22 13:32:42;;;;;;;32.95;13.30;;;9.20;99.90;;;;;;5052592;28;20053;-52
2022/12/22 13:35:15;;;;;;;27.48;11.40;;;9.20;99.90;;;;;;5049018;28;20080;-50
2022/12/22 13:37:43;;;;;;;34.95;13.73;;;9.30;99.90;;;;;;5050721;28;20053;-47
2022/12/22 13:40:12;;;;;;;26.88;10.10;;;9.30;99.90;;;;;;5046669;28;20147;-53
2022/12/22 13:42:40;;;;;;;27.88;9.98;;;9.30;99.90;;;;;;5050150;28;20401;-51
2022/12/22 13:45:11;;;;;;;29.50;9.48;;;9.30;99.90;;;;;;5048534;28;20566;-47
2022/12/22 13:47:41;;;;;;;29.45;9.60;;;9.30;99.90;;;;;;5047425;28;20386;-48
2022/12/22 13:50:17;;;;;;;27.60;10.02;;;9.30;99.90;;;;;;5050092;28;20079;-50
2022/12/22 13:52:43;;;;;;;24.88;9.30;;;9.30;99.90;;;;;;5037118;28;20140;-51
2022/12/22 13:55:12;;;;;;;23.02;8.40;;;9.30;99.90;;;;;;5049089;28;20080;-51
2022/12/22 13:57:39;;;;;;;22.42;8.38;;;9.30;99.90;;;;;;5050326;28;20076;-52
2022/12/22 14:00:16;;;;;;;18.65;7.63;;;9.30;99.90;;;;;;5049407;28;20081;-47
2022/12/22 14:02:44;;;;;;;23.83;8.32;;;9.30;99.90;;;;;;5049024;28;20088;-47
2022/12/22 14:05:12;;;;;;;22.25;7.65;;;9.20;99.90;;;;;;5048381;28;20107;-52
2022/12/22 14:07:39;;;;;;;17.95;7.45;;;9.10;99.90;;;;;;5048676;28;20505;-53
2022/12/22 14:10:07;;;;;;;22.17;7.57;;;9.10;99.90;;;;;;5047479;28;20129;-45
2022/12/22 14:12:37;;;;;;;24.13;7.75;;;9.10;99.90;;;;;;5046222;28;20080;-51
2022/12/22 14:15:08;;;;;;;22.23;7.60;;;9.00;99.90;;;;;;5049768;28;20137;-47
2022/12/22 14:17:36;;;;;;;19.27;7.63;;;9.10;99.90;;;;;;5047577;28;20080;-45
2022/12/22 14:20:14;;;;;;;27.25;7.22;;;9.10;99.90;;;;;;5047301;28;20148;-50
2022/12/22 14:22:43;;;;;;;17.10;6.55;;;9.00;99.90;;;;;;5051001;28;20083;-53
2022/12/22 14:25:13;;;;;;;21.23;6.85;;;9.00;99.90;;;;;;5048489;28;20120;-51
2022/12/22 14:27:41;;;;;;;15.63;6.57;;;9.00;99.90;;;;;;5042345;28;20103;-52
2022/12/22 14:30:16;;;;;;;17.45;7.13;;;9.00;99.90;;;;;;5048037;28;20085;-45
2022/12/22 14:32:44;;;;;;;21.38;6.50;;;9.00;99.90;;;;;;5046940;28;20091;-54
2022/12/22 14:35:25;;;;;;;16.88;6.90;;;9.10;99.90;;;;;;5047241;28;20417;-49
2022/12/22 14:37:53;;;;;;;15.93;6.38;;;9.10;99.90;;;;;;5050210;28;20057;-52
2022/12/22 14:40:33;;;;;;;14.13;6.75;;;9.00;99.90;;;;;;5049245;28;20128;-49
2022/12/22 14:43:01;;;;;;;23.73;7.57;;;9.10;99.90;;;;;;5049881;28;20544;-52
2022/12/22 14:45:28;;;;;;;14.75;6.47;;;9.10;99.90;;;;;;5050752;28;20049;-54
2022/12/22 14:47:55;;;;;;;15.50;6.47;;;9.10;99.90;;;;;;5044688;28;20115;-52
2022/12/22 14:50:24;;;;;;;21.25;7.93;;;9.00;99.90;;;;;;5047572;28;20107;-47
2022/12/22 14:52:51;;;;;;;25.00;7.25;;;9.00;99.90;;;;;;5048407;28;20138;-52
2022/12/22 14:55:23;;;;;;;18.35;7.32;;;9.00;99.90;;;;;;5047679;28;20049;-49
2022/12/22 14:57:51;;;;;;;;;;;9.00;99.90;;;;;;5052103;28;20102;-41
2022/12/22 15:00:29;;;;;;;22.13;7.25;;;8.90;99.90;;;;;;5048054;28;19920;-48
2022/12/22 15:02:57;;;;;;;22.67;7.75;;;8.80;99.90;;;;;;5037538;28;20118;-44
2022/12/22 15:05:26;;;;;;;24.10;7.22;;;8.80;99.90;;;;;;5053427;28;20081;-52
2022/12/22 15:07:54;;;;;;;18.67;7.25;;;8.80;99.90;;;;;;5051434;28;20470;-55
2022/12/22 15:10:21;;;;;;;17.55;7.03;;;8.80;99.90;;;;;;5051403;28;20112;-51
2022/12/22 15:12:48;;;;;;;17.88;7.20;;;8.70;99.90;;;;;;5054196;28;20080;-50
2022/12/22 15:15:16;;;;;;;16.95;7.75;;;8.70;99.90;;;;;;5051352;28;20126;-54
2022/12/22 15:17:44;;;;;;;25.40;7.00;;;8.70;99.90;;;;;;5052350;28;20095;-53
2022/12/22 15:20:15;;;;;;;17.98;6.88;;;8.70;99.90;;;;;;5051292;28;20057;-52
2022/12/22 15:22:43;;;;;;;14.80;7.37;;;8.70;99.90;;;;;;5050909;28;20049;-50
2022/12/22 15:25:14;;;;;;;17.55;6.93;;;8.70;99.90;;;;;;5051145;28;20061;-52
2022/12/22 15:27:41;;;;;;;13.80;6.90;;;8.70;99.90;;;;;;5053442;28;20060;-49
2022/12/22 15:30:09;;;;;;;23.58;7.72;;;8.60;99.90;;;;;;5052088;28;20461;-46
2022/12/22 15:32:36;;;;;;;23.50;7.80;;;8.60;99.90;;;;;;5050625;28;20126;-52
2022/12/22 15:35:02;;;;;;;29.35;7.55;;;8.60;99.90;;;;;;5052562;28;20436;-51
2022/12/22 15:37:29;;;;;;;22.83;8.15;;;8.60;99.90;;;;;;5050383;28;20076;-52
2022/12/22 15:39:57;;;;;;;15.32;7.80;;;8.60;99.90;;;;;;5048052;28;20102;-52
2022/12/22 15:42:24;;;;;;;28.65;8.52;;;8.60;99.90;;;;;;5054894;28;20072;-52
2022/12/22 15:44:51;;;;;;;18.60;6.90;;;8.50;99.90;;;;;;5049010;28;20127;-52
2022/12/22 15:47:18;;;;;;;26.15;7.63;;;8.50;99.90;;;;;;5049181;28;20635;-43
2022/12/22 15:49:45;;;;;;;25.48;9.93;;;8.60;99.90;;;;;;5048277;28;20516;-53
2022/12/22 15:52:13;;;;;;;20.67;13.30;;;8.60;99.90;;;;;;5052172;28;20064;-53
2022/12/22 15:54:40;;;;;;;28.90;16.63;;;8.60;99.90;;;;;;5043319;28;20080;-45
2022/12/22 15:57:09;;;;;;;29.02;11.90;;;8.60;99.90;;;;;;5051079;28;20524;-47
2022/12/22 15:59:36;;;;;;;25.58;12.57;;;8.60;99.90;;;;;;5053348;28;20102;-51
2022/12/22 16:02:03;;;;;;;23.90;11.30;;;8.60;99.90;;;;;;5048313;28;20789;-52
2022/12/22 16:04:30;;;;;;;23.55;9.98;;;8.60;99.90;;;;;;5051872;28;20049;-51
2022/12/22 16:06:58;;;;;;;22.48;9.13;;;8.50;99.90;;;;;;5049064;28;20084;-51
2022/12/22 16:09:27;;;;;;;15.77;8.98;;;8.60;99.90;;;;;;5053944;28;20095;-51
2022/12/22 16:11:54;;;;;;;27.55;10.07;;;8.60;99.90;;;;;;5053169;28;20103;-52
2022/12/22 16:14:22;;;;;;;21.02;10.13;;;8.60;99.90;;;;;;5050279;28;20103;-42
2022/12/22 16:16:49;;;;;;;22.58;11.13;;;8.60;99.90;;;;;;5049923;28;20045;-47
2022/12/22 16:19:16;;;;;;;15.63;10.10;;;8.60;99.90;;;;;;5051363;28;20045;-54
2022/12/22 16:21:43;;;;;;;23.02;11.38;;;8.60;99.90;;;;;;5051717;28;20448;-51
2022/12/22 16:24:16;;;;;;;22.08;11.02;;;8.50;99.90;;;;;;5050345;28;20462;-52
2022/12/22 16:26:42;;;;;;;22.65;11.95;;;8.60;99.90;;;;;;5045626;28;20552;-53